Time;durP1;ratioP1;P1;durP2;ratioP2;P2;SDS_P1;SDS_P2;PMS_P1;PMS_P2;Temp;Humidity;BMP_temperature;BMP_pressure;BME280_temperature;BME280_humidity;BME280_pressure;Samples;Min_cycle;Max_cycle;Signal;HPM_P1;HPM_P2
2023/03/03 00:00:39;;;;;;;6.75;3.45;;;;;;;;;;4876133;29;20073;-78
2023/03/03 00:03:08;;;;;;;4.20;3.50;;;;;;;;;;4873585;29;20032;-79
2023/03/03 00:05:34;;;;;;;5.95;3.72;;;;;;;;;;4857195;29;20029;-76
2023/03/03 00:08:01;;;;;;;6.80;3.83;;;;;;;;;;4877108;29;20510;-78
2023/03/03 00:10:27;;;;;;;5.65;3.50;;;;;;;;;;4879991;29;20538;-77
2023/03/03 00:12:53;;;;;;;3.72;2.90;;;;;;;;;;4863602;29;20026;-77
2023/03/03 00:15:21;;;;;;;4.53;3.25;;;;;;;;;;4878714;29;20096;-75
2023/03/03 00:17:47;;;;;;;5.55;3.60;;;;;;;;;;4870591;29;20029;-78
2023/03/03 00:20:29;;;;;;;4.43;3.30;;;;;;;;;;4878958;29;20029;-77
2023/03/03 00:22:55;;;;;;;4.40;3.70;;;;;;;;;;4868513;29;20125;-76
2023/03/03 00:25:22;;;;;;;4.40;3.22;;;;;;;;;;4856798;29;20032;-75
2023/03/03 00:27:48;;;;;;;3.17;2.60;;;;;;;;;;4862493;29;20077;-77
2023/03/03 00:30:23;;;;;;;3.03;2.70;;;;;;;;;;4878583;29;20572;-76
2023/03/03 00:32:51;;;;;;;4.68;3.65;;;;;;;;;;4880944;29;20036;-77
2023/03/03 00:35:25;;;;;;;5.45;2.75;;;;;;;;;;4878672;29;20029;-77
2023/03/03 00:37:56;;;;;;;2.70;2.25;;;;;;;;;;4879249;29;20334;-76
2023/03/03 00:40:27;;;;;;;8.15;2.95;;;;;;;;;;4877285;29;20341;-78
2023/03/03 00:42:54;;;;;;;3.58;2.85;;;;;;;;;;4877205;29;20055;-77
2023/03/03 00:45:32;;;;;;;4.20;3.20;;;;;;;;;;4878633;29;20026;-76
2023/03/03 00:47:58;;;;;;;4.43;3.50;;;;;;;;;;4873487;29;20055;-77
2023/03/03 00:50:25;;;;;;;4.22;3.38;;;;;;;;;;4875640;29;20032;-76
2023/03/03 00:53:02;;;;;;;4.47;3.00;;;;;;;;;;4895195;29;20093;-76
2023/03/03 00:55:28;;;;;;;3.90;2.88;;;;;;;;;;4900006;29;20108;-81
2023/03/03 00:57:54;;;;;;;3.25;2.45;;;;;;;;;;4896735;29;20111;-77
2023/03/03 01:00:20;;;;;;;3.67;2.38;;;;;;;;;;4893477;29;20029;-76
2023/03/03 01:02:47;;;;;;;3.75;2.58;;;;;;;;;;4898596;29;20072;-79
2023/03/03 01:05:13;;;;;;;2.75;2.13;;;;;;;;;;4904034;29;20370;-77
2023/03/03 01:07:43;;;;;;;3.88;2.78;;;;;;;;;;4884040;29;20029;-77
2023/03/03 01:10:09;;;;;;;5.25;2.45;;;;;;;;;;4891205;29;20088;-77
2023/03/03 01:12:37;;;;;;;7.57;3.00;;;;;;;;;;4900095;29;20025;-78
2023/03/03 01:15:03;;;;;;;3.30;2.50;;;;;;;;;;4903003;29;20531;-77
2023/03/03 01:17:30;;;;;;;3.65;2.42;;;;;;;;;;4890158;29;20029;-76
2023/03/03 01:19:56;;;;;;;3.00;2.60;;;;;;;;;;4891843;29;20024;-77
2023/03/03 01:22:22;;;;;;;2.88;2.22;;;;;;;;;;4894800;29;20111;-76
2023/03/03 01:24:48;;;;;;;3.75;2.40;;;;;;;;;;4902826;29;20032;-77
2023/03/03 01:27:14;;;;;;;3.13;2.20;;;;;;;;;;4895137;29;20036;-77
2023/03/03 01:29:40;;;;;;;2.70;2.20;;;;;;;;;;4896836;29;20021;-77
2023/03/03 01:32:06;;;;;;;2.35;1.98;;;;;;;;;;4894160;29;20111;-77
2023/03/03 01:34:33;;;;;;;2.17;1.98;;;;;;;;;;4878222;29;20064;-77
2023/03/03 01:36:59;;;;;;;2.53;2.00;;;;;;;;;;4896771;29;20024;-77
2023/03/03 01:39:26;;;;;;;3.70;1.90;;;;;;;;;;4895130;29;20031;-77
2023/03/03 01:41:52;;;;;;;3.58;2.20;;;;;;;;;;4893482;29;20025;-78
2023/03/03 01:44:18;;;;;;;3.78;2.00;;;;;;;;;;4898767;29;20043;-77
2023/03/03 01:47:07;;;;;;;1.90;1.70;;;;;;;;;;4884248;29;20486;-77
2023/03/03 01:49:52;;;;;;;3.95;2.30;;;;;;;;;;4880934;29;20100;-77
2023/03/03 01:52:18;;;;;;;1.90;1.80;;;;;;;;;;4883762;29;20053;-77
2023/03/03 01:54:47;;;;;;;3.03;1.77;;;;;;;;;;4881201;29;20096;-78
2023/03/03 01:57:15;;;;;;;2.42;2.10;;;;;;;;;;4876993;29;20142;-77
2023/03/03 01:59:43;;;;;;;3.13;2.30;;;;;;;;;;4872238;29;20029;-78
2023/03/03 02:02:09;;;;;;;3.13;2.13;;;;;;;;;;4886541;29;20336;-75
2023/03/03 02:04:35;;;;;;;3.45;2.40;;;;;;;;;;4891754;29;20121;-77
2023/03/03 02:07:05;;;;;;;5.55;2.10;;;;;;;;;;4881818;29;20496;-76
2023/03/03 02:09:50;;;;;;;5.30;2.30;;;;;;;;;;4874979;29;20116;-76
2023/03/03 02:12:17;;;;;;;5.72;2.30;;;;;;;;;;4876241;29;20033;-77
2023/03/03 02:14:43;;;;;;;3.58;2.15;;;;;;;;;;4879601;29;20074;-78
2023/03/03 02:17:10;;;;;;;4.93;2.45;;;;;;;;;;4879225;29;20029;-78
2023/03/03 02:19:42;;;;;;;4.03;2.20;;;;;;;;;;4875332;29;20096;-77
2023/03/03 02:22:08;;;;;;;3.30;2.17;;;;;;;;;;4875454;29;20048;-78
2023/03/03 02:24:39;;;;;;;3.10;2.42;;;;;;;;;;4873391;29;20028;-76
2023/03/03 02:27:05;;;;;;;3.47;2.13;;;;;;;;;;4872533;29;20033;-77
2023/03/03 02:29:31;;;;;;;3.67;2.35;;;;;;;;;;4873032;29;20044;-76
2023/03/03 02:31:57;;;;;;;2.63;2.20;;;;;;;;;;4874828;29;20138;-77
2023/03/03 02:34:23;;;;;;;3.72;2.22;;;;;;;;;;4878155;29;20060;-77
2023/03/03 02:36:49;;;;;;;2.20;2.00;;;;;;;;;;4877699;29;20036;-76
2023/03/03 02:39:21;;;;;;;3.03;2.35;;;;;;;;;;4875260;29;20036;-77
2023/03/03 02:41:54;;;;;;;4.25;2.47;;;;;;;;;;4884708;29;20109;-76
2023/03/03 02:44:22;;;;;;;2.90;2.13;;;;;;;;;;4877169;29;20025;-79
2023/03/03 02:46:48;;;;;;;3.35;3.05;;;;;;;;;;4868591;29;20081;-76
2023/03/03 02:49:16;;;;;;;4.63;2.60;;;;;;;;;;4884420;29;20441;-76
2023/03/03 02:51:42;;;;;;;4.68;2.72;;;;;;;;;;4882435;29;20051;-78
2023/03/03 02:54:09;;;;;;;3.22;2.40;;;;;;;;;;4877483;29;20034;-78
2023/03/03 02:56:35;;;;;;;6.32;3.20;;;;;;;;;;4877873;29;20025;-76
2023/03/03 02:59:02;;;;;;;6.07;2.78;;;;;;;;;;4877136;29;20029;-76
2023/03/03 03:01:30;;;;;;;4.65;3.22;;;;;;;;;;4876705;29;20061;-77
2023/03/03 03:03:57;;;;;;;4.13;3.20;;;;;;;;;;4864415;29;20060;-77
2023/03/03 03:06:23;;;;;;;4.93;3.13;;;;;;;;;;4877106;29;20025;-77
2023/03/03 03:08:49;;;;;;;5.90;3.63;;;;;;;;;;4873371;29;20025;-78
2023/03/03 03:11:15;;;;;;;5.78;3.53;;;;;;;;;;4875004;29;20180;-77
2023/03/03 03:13:42;;;;;;;6.35;4.18;;;;;;;;;;4879931;29;20065;-77
2023/03/03 03:16:08;;;;;;;4.90;2.92;;;;;;;;;;4876405;29;20021;-77
2023/03/03 03:18:34;;;;;;;5.28;3.50;;;;;;;;;;4879756;29;20396;-77
2023/03/03 03:21:10;;;;;;;5.13;3.72;;;;;;;;;;4870124;29;20034;-77
2023/03/03 03:23:36;;;;;;;4.50;3.30;;;;;;;;;;4866949;29;20029;-77
2023/03/03 03:26:02;;;;;;;4.60;3.50;;;;;;;;;;4887022;29;20041;-77
2023/03/03 03:28:29;;;;;;;6.35;3.35;;;;;;;;;;4877200;29;20057;-77
2023/03/03 03:30:55;;;;;;;5.03;3.70;;;;;;;;;;4861612;29;20108;-77
2023/03/03 03:33:21;;;;;;;5.22;3.92;;;;;;;;;;4874201;29;20105;-76
2023/03/03 03:35:48;;;;;;;5.55;3.03;;;;;;;;;;4877554;29;20117;-77
2023/03/03 03:38:14;;;;;;;4.53;3.90;;;;;;;;;;4877407;29;20029;-78
2023/03/03 03:40:40;;;;;;;4.45;3.33;;;;;;;;;;4875898;29;20028;-77
2023/03/03 03:43:10;;;;;;;4.97;3.90;;;;;;;;;;4876301;29;20100;-78
2023/03/03 03:45:36;;;;;;;4.63;3.60;;;;;;;;;;4876189;29;20045;-77
2023/03/03 03:48:02;;;;;;;4.75;3.80;;;;;;;;;;4880065;29;20029;-76
2023/03/03 03:50:29;;;;;;;5.82;3.67;;;;;;;;;;4870739;29;20025;-76
2023/03/03 03:52:55;;;;;;;6.15;2.97;;;;;;;;;;4877199;29;20101;-77
2023/03/03 03:55:21;;;;;;;5.55;3.53;;;;;;;;;;4872571;29;20178;-76
2023/03/03 03:57:47;;;;;;;5.50;3.90;;;;;;;;;;4876532;29;20044;-77
2023/03/03 04:00:14;;;;;;;3.78;3.40;;;;;;;;;;4875751;29;20400;-77
2023/03/03 04:02:40;;;;;;;5.10;3.70;;;;;;;;;;4871912;29;20380;-77
2023/03/03 04:05:06;;;;;;;5.68;3.80;;;;;;;;;;4871011;29;20077;-76
2023/03/03 04:07:33;;;;;;;4.80;3.92;;;;;;;;;;4874690;29;20424;-77
2023/03/03 04:09:59;;;;;;;4.85;4.05;;;;;;;;;;4879412;29;20085;-77
2023/03/03 04:12:25;;;;;;;4.65;3.63;;;;;;;;;;4871969;29;20048;-77
2023/03/03 04:14:51;;;;;;;4.65;3.67;;;;;;;;;;4872963;29;20032;-78
2023/03/03 04:17:18;;;;;;;6.38;3.97;;;;;;;;;;4869819;29;20119;-77
2023/03/03 04:19:45;;;;;;;5.30;4.32;;;;;;;;;;4871921;29;20104;-77
2023/03/03 04:22:12;;;;;;;5.82;4.30;;;;;;;;;;4873397;29;20043;-77
2023/03/03 04:24:38;;;;;;;5.20;3.90;;;;;;;;;;4878109;29;20392;-78
2023/03/03 04:27:05;;;;;;;5.18;4.13;;;;;;;;;;4876309;29;20059;-77
2023/03/03 04:29:31;;;;;;;4.55;4.10;;;;;;;;;;4876115;29;20052;-76
2023/03/03 04:31:57;;;;;;;7.13;4.50;;;;;;;;;;4871597;29;20445;-77
2023/03/03 04:34:23;;;;;;;4.78;4.10;;;;;;;;;;4869154;29;20033;-76
2023/03/03 04:36:50;;;;;;;4.68;4.15;;;;;;;;;;4878267;29;20040;-77
2023/03/03 04:39:16;;;;;;;5.57;3.83;;;;;;;;;;4877389;29;20081;-77
2023/03/03 04:41:42;;;;;;;4.63;4.13;;;;;;;;;;4876484;29;20104;-75
2023/03/03 04:44:09;;;;;;;5.97;4.45;;;;;;;;;;4875047;29;20041;-79
2023/03/03 04:46:35;;;;;;;5.35;4.35;;;;;;;;;;4878777;29;20033;-77
2023/03/03 04:49:02;;;;;;;7.22;4.25;;;;;;;;;;4870793;29;20033;-77
2023/03/03 04:51:28;;;;;;;5.88;4.65;;;;;;;;;;4880641;29;20075;-77
2023/03/03 04:53:54;;;;;;;7.90;4.70;;;;;;;;;;4900627;29;20115;-78
2023/03/03 04:56:21;;;;;;;5.30;4.25;;;;;;;;;;4892608;29;20044;-76
2023/03/03 04:58:47;;;;;;;6.32;4.40;;;;;;;;;;4899229;29;20032;-77
2023/03/03 05:01:13;;;;;;;5.70;5.00;;;;;;;;;;4892118;29;20037;-77
2023/03/03 05:03:40;;;;;;;7.03;4.55;;;;;;;;;;4892134;29;20457;-77
2023/03/03 05:06:06;;;;;;;5.88;4.43;;;;;;;;;;4903750;29;20084;-75
2023/03/03 05:08:32;;;;;;;8.07;4.43;;;;;;;;;;4900347;29;20024;-77
2023/03/03 05:10:58;;;;;;;5.90;4.38;;;;;;;;;;4904590;29;20059;-76
2023/03/03 05:13:28;;;;;;;6.25;4.47;;;;;;;;;;4890062;29;20184;-79
2023/03/03 05:15:55;;;;;;;7.85;4.78;;;;;;;;;;4893399;29;20024;-77
2023/03/03 05:18:22;;;;;;;6.22;5.05;;;;;;;;;;4894315;29;20045;-77
2023/03/03 05:20:48;;;;;;;8.73;5.35;;;;;;;;;;4897989;29;20030;-78
2023/03/03 05:23:15;;;;;;;8.85;5.10;;;;;;;;;;4902214;29;20488;-78
2023/03/03 05:25:41;;;;;;;8.23;5.07;;;;;;;;;;4893454;29;20035;-77
2023/03/03 05:28:08;;;;;;;7.88;4.82;;;;;;;;;;4897090;29;20035;-76
2023/03/03 05:30:34;;;;;;;9.52;5.20;;;;;;;;;;4902232;29;20487;-76
2023/03/03 05:33:00;;;;;;;6.78;5.30;;;;;;;;;;4894399;29;20036;-77
2023/03/03 05:35:27;;;;;;;5.55;4.55;;;;;;;;;;4897840;29;20033;-77
2023/03/03 05:37:57;;;;;;;6.28;4.63;;;;;;;;;;4893884;29;20029;-76
2023/03/03 05:40:24;;;;;;;9.10;5.20;;;;;;;;;;4893749;29;20013;-77
2023/03/03 05:42:50;;;;;;;6.72;5.50;;;;;;;;;;4900499;29;20079;-77
2023/03/03 05:45:19;;;;;;;7.47;5.25;;;;;;;;;;4887488;29;20488;-77
2023/03/03 05:47:46;;;;;;;6.32;5.10;;;;;;;;;;4889525;29;20476;-76
2023/03/03 05:50:12;;;;;;;9.13;5.63;;;;;;;;;;4895813;29;20088;-77
2023/03/03 05:52:38;;;;;;;5.85;5.20;;;;;;;;;;4885667;29;20725;-77
2023/03/03 05:55:05;;;;;;;7.57;6.05;;;;;;;;;;4884172;29;20131;-77
2023/03/03 05:57:31;;;;;;;9.02;5.43;;;;;;;;;;4877216;29;20025;-77
2023/03/03 05:59:57;;;;;;;7.75;5.82;;;;;;;;;;4874206;29;20086;-76
2023/03/03 06:02:23;;;;;;;6.78;5.05;;;;;;;;;;4871458;29;20025;-77
2023/03/03 06:04:49;;;;;;;8.63;6.03;;;;;;;;;;4884983;29;20108;-78
2023/03/03 06:07:16;;;;;;;7.82;5.43;;;;;;;;;;4875676;29;20510;-78
2023/03/03 06:09:42;;;;;;;8.18;5.43;;;;;;;;;;4889023;29;20036;-75
2023/03/03 06:12:08;;;;;;;6.13;5.50;;;;;;;;;;4878680;29;20033;-77
2023/03/03 06:14:34;;;;;;;11.93;5.63;;;;;;;;;;4874806;29;20544;-75
2023/03/03 06:17:00;;;;;;;8.88;5.88;;;;;;;;;;4875403;29;20035;-77
2023/03/03 06:19:27;;;;;;;12.02;5.43;;;;;;;;;;4875089;29;20032;-77
2023/03/03 06:21:53;;;;;;;7.95;5.80;;;;;;;;;;4873651;29;20025;-77
2023/03/03 06:24:19;;;;;;;8.38;5.80;;;;;;;;;;4874693;29;20056;-77
2023/03/03 06:26:45;;;;;;;6.82;5.82;;;;;;;;;;4879462;29;20113;-78
2023/03/03 06:29:11;;;;;;;7.60;6.00;;;;;;;;;;4879414;29;20128;-75
2023/03/03 06:31:38;;;;;;;6.47;4.88;;;;;;;;;;4870135;29;20032;-78
2023/03/03 06:34:04;;;;;;;7.75;5.93;;;;;;;;;;4872827;29;20036;-75
2023/03/03 06:36:30;;;;;;;7.85;5.40;;;;;;;;;;4871897;29;20033;-77
2023/03/03 06:38:56;;;;;;;8.15;5.38;;;;;;;;;;4874584;29;20553;-76
2023/03/03 06:41:22;;;;;;;8.93;5.50;;;;;;;;;;4862493;29;20072;-78
2023/03/03 06:43:48;;;;;;;10.82;6.07;;;;;;;;;;4874973;29;20477;-76
2023/03/03 06:46:16;;;;;;;10.80;5.72;;;;;;;;;;4881892;29;20073;-75
2023/03/03 06:48:42;;;;;;;5.97;5.38;;;;;;;;;;4872183;29;20133;-78
2023/03/03 06:51:28;;;;;;;8.10;5.82;;;;;;;;;;4883004;29;20057;-78
2023/03/03 06:53:55;;;;;;;8.95;5.90;;;;;;;;;;4884570;29;20029;-76
2023/03/03 06:56:24;;;;;;;7.22;5.97;;;;;;;;;;4881131;29;20066;-76
2023/03/03 06:58:50;;;;;;;7.20;5.82;;;;;;;;;;4871559;29;20049;-77
2023/03/03 07:01:17;;;;;;;8.13;5.38;;;;;;;;;;4884140;29;20528;-77
2023/03/03 07:03:46;;;;;;;12.82;6.28;;;;;;;;;;4864837;29;20060;-78
2023/03/03 07:06:18;;;;;;;6.38;5.75;;;;;;;;;;4855651;29;21808;-76
2023/03/03 07:08:44;;;;;;;9.18;6.03;;;;;;;;;;4876683;29;20075;-77
2023/03/03 07:11:13;;;;;;;9.52;5.53;;;;;;;;;;4880023;29;20037;-76
2023/03/03 07:13:41;;;;;;;9.40;5.55;;;;;;;;;;4874313;29;20473;-78
2023/03/03 07:16:10;;;;;;;7.85;5.75;;;;;;;;;;4871607;29;20520;-76
2023/03/03 07:19:03;;;;;;;8.82;5.95;;;;;;;;;;4876886;29;20036;-76
2023/03/03 07:21:36;;;;;;;7.65;5.72;;;;;;;;;;4877183;29;20025;-77
2023/03/03 07:24:22;;;;;;;9.02;6.10;;;;;;;;;;4867981;29;20033;-76
2023/03/03 07:26:48;;;;;;;8.88;6.50;;;;;;;;;;4874077;29;20112;-77
2023/03/03 07:29:29;;;;;;;9.85;7.07;;;;;;;;;;4879879;29;20400;-76
2023/03/03 07:31:56;;;;;;;8.13;6.18;;;;;;;;;;4870720;29;20082;-77
2023/03/03 07:34:24;;;;;;;10.13;7.40;;;;;;;;;;4875543;29;20145;-77
2023/03/03 07:36:53;;;;;;;12.68;7.25;;;;;;;;;;4877897;29;20026;-77
2023/03/03 07:39:22;;;;;;;9.10;6.13;;;;;;;;;;4878545;29;20037;-77
2023/03/03 07:41:48;;;;;;;8.20;6.28;;;;;;;;;;4876360;29;20105;-76
2023/03/03 07:44:20;;;;;;;9.13;5.80;;;;;;;;;;4878587;29;20048;-77
2023/03/03 07:46:48;;;;;;;12.23;6.47;;;;;;;;;;4877205;29;20029;-77
2023/03/03 07:49:21;;;;;;;7.97;6.57;;;;;;;;;;4860727;29;20549;-76
2023/03/03 07:51:48;;;;;;;8.85;6.53;;;;;;;;;;4866424;29;20056;-76
2023/03/03 07:54:31;;;;;;;6.82;4.78;;;;;;;;;;4905498;29;20044;-75
2023/03/03 07:57:02;;;;;;;7.53;4.82;;;;;;;;;;4897789;29;20039;-76
2023/03/03 07:59:28;;;;;;;6.47;4.45;;;;;;;;;;4909057;29;20047;-78
2023/03/03 08:01:57;;;;;;;6.05;5.13;;;;;;;;;;4908191;29;20053;-76
2023/03/03 08:04:53;;;;;;;6.13;5.03;;;;;;;;;;4905475;29;20033;-79
2023/03/03 08:07:21;;;;;;;6.78;5.13;;;;;;;;;;4893915;29;20033;-75
2023/03/03 08:09:58;;;;;;;6.88;5.00;;;;;;;;;;4913847;29;20068;-76
2023/03/03 08:12:31;;;;;;;6.35;5.00;;;;;;;;;;4905248;29;20033;-74
2023/03/03 08:15:07;;;;;;;5.35;4.45;;;;;;;;;;4904636;29;20369;-76
2023/03/03 08:17:41;;;;;;;5.05;4.40;;;;;;;;;;4912316;29;20052;-74
2023/03/03 08:20:26;;;;;;;6.25;4.95;;;;;;;;;;4907788;29;20039;-75
2023/03/03 08:22:52;;;;;;;8.65;4.70;;;;;;;;;;4923881;29;20021;-75
2023/03/03 08:25:18;;;;;;;5.90;4.82;;;;;;;;;;4901584;29;20036;-76
2023/03/03 08:27:44;;;;;;;5.97;4.53;;;;;;;;;;4915696;29;20485;-75
2023/03/03 08:30:11;;;;;;;6.22;4.38;;;;;;;;;;4905355;29;20036;-76
2023/03/03 08:32:37;;;;;;;5.43;3.97;;;;;;;;;;4915017;29;20056;-75
2023/03/03 08:35:03;;;;;;;7.20;4.93;;;;;;;;;;4914597;29;20032;-75
2023/03/03 08:37:29;;;;;;;6.63;4.05;;;;;;;;;;4912725;29;20025;-77
2023/03/03 08:39:55;;;;;;;5.10;4.00;;;;;;;;;;4906706;29;20020;-76
2023/03/03 08:42:21;;;;;;;8.13;4.25;;;;;;;;;;4906916;29;20549;-76
2023/03/03 08:44:47;;;;;;;10.57;6.03;;;;;;;;;;4909329;29;20036;-76
2023/03/03 08:47:13;;;;;;;12.85;6.32;;;;;;;;;;4914702;29;20148;-76
2023/03/03 08:49:40;;;;;;;20.15;9.52;;;;;;;;;;4904863;29;20028;-75
2023/03/03 08:52:06;;;;;;;17.92;7.88;;;;;;;;;;4895919;29;20468;-78
2023/03/03 08:54:32;;;;;;;11.13;7.10;;;;;;;;;;4895129;29;20048;-75
2023/03/03 08:56:58;;;;;;;15.00;8.70;;;;;;;;;;4876133;29;20040;-77
2023/03/03 08:59:24;;;;;;;21.52;9.00;;;;;;;;;;4870635;29;20488;-77
2023/03/03 09:01:51;;;;;;;8.68;4.80;;;;;;;;;;4871143;29;20688;-77
2023/03/03 09:04:17;;;;;;;6.38;4.28;;;;;;;;;;4874871;29;20029;-78
2023/03/03 09:06:43;;;;;;;6.00;3.70;;;;;;;;;;4862663;29;20037;-77
2023/03/03 09:09:09;;;;;;;21.92;11.80;;;;;;;;;;4868420;29;20067;-77
2023/03/03 09:11:36;;;;;;;15.60;8.23;;;;;;;;;;4865891;29;20036;-77
2023/03/03 09:14:06;;;;;;;9.13;3.95;;;;;;;;;;4873336;29;20051;-78
2023/03/03 09:16:35;;;;;;;20.98;9.50;;;;;;;;;;4873004;29;20028;-79
2023/03/03 09:19:15;;;;;;;5.55;3.42;;;;;;;;;;4869010;29;20060;-77
2023/03/03 09:21:41;;;;;;;3.58;2.17;;;;;;;;;;4875479;29;20029;-76
2023/03/03 09:24:31;;;;;;;4.07;2.72;;;;;;;;;;4869289;29;20036;-79
2023/03/03 09:26:58;;;;;;;5.97;2.50;;;;;;;;;;4855874;29;20069;-78
2023/03/03 09:29:36;;;;;;;2.78;2.53;;;;;;;;;;4882027;29;20037;-76
2023/03/03 09:32:18;;;;;;;4.07;2.20;;;;;;;;;;4876976;29;20414;-76
2023/03/03 09:34:44;;;;;;;4.10;2.00;;;;;;;;;;4854006;29;20033;-76
2023/03/03 09:37:24;;;;;;;2.45;1.98;;;;;;;;;;4872635;29;20032;-77
2023/03/03 09:39:51;;;;;;;3.03;2.20;;;;;;;;;;4854440;29;20084;-78
2023/03/03 09:42:36;;;;;;;2.85;2.03;;;;;;;;;;4871165;29;20033;-78
2023/03/03 09:45:07;;;;;;;4.70;1.70;;;;;;;;;;4876507;29;20048;-78
2023/03/03 09:47:51;;;;;;;2.75;2.05;;;;;;;;;;4864370;29;20028;-76
2023/03/03 09:50:36;;;;;;;3.85;3.08;;;;;;;;;;4866992;29;20290;-76
2023/03/03 09:53:11;;;;;;;4.53;2.10;;;;;;;;;;4868357;29;20060;-77
2023/03/03 09:55:40;;;;;;;3.75;2.42;;;;;;;;;;4861070;29;20034;-78
2023/03/03 09:58:22;;;;;;;51.72;24.25;;;;;;;;;;4859178;29;20033;-80
2023/03/03 10:01:01;;;;;;;53.25;25.67;;;;;;;;;;4871845;29;20033;-76
2023/03/03 10:03:40;;;;;;;27.23;14.27;;;;;;;;;;4867528;29;20029;-77
2023/03/03 10:06:09;;;;;;;6.35;4.18;;;;;;;;;;4857957;29;20040;-76
2023/03/03 10:08:49;;;;;;;3.67;2.50;;;;;;;;;;4877466;29;20033;-78
2023/03/03 10:11:31;;;;;;;4.18;2.28;;;;;;;;;;4885584;29;20040;-77
2023/03/03 10:14:17;;;;;;;6.32;2.42;;;;;;;;;;4862014;29;20093;-78
2023/03/03 10:16:43;;;;;;;7.45;2.13;;;;;;;;;;4861206;29;20029;-78
2023/03/03 10:19:09;;;;;;;2.22;1.90;;;;;;;;;;4888365;29;20058;-77
2023/03/03 10:21:36;;;;;;;6.10;2.08;;;;;;;;;;4884636;29;20421;-77
2023/03/03 10:24:08;;;;;;;1.83;1.70;;;;;;;;;;4876024;29;20071;-78
2023/03/03 10:26:46;;;;;;;1.90;1.80;;;;;;;;;;4878385;29;20089;-78
2023/03/03 10:29:39;;;;;;;5.50;2.03;;;;;;;;;;4876253;29;20040;-76
2023/03/03 10:32:37;;;;;;;3.97;1.70;;;;;;;;;;4866708;29;20097;-77
2023/03/03 10:35:23;;;;;;;1.73;1.63;;;;;;;;;;4835542;29;20060;-78
2023/03/03 10:38:09;;;;;;;5.93;2.03;;;;;;;;;;4879450;29;20397;-76
2023/03/03 10:40:35;;;;;;;;;;;;;;;;;;4874957;29;20341;-77
2023/03/03 10:43:01;;;;;;;2.33;1.80;;;;;;;;;;4879134;29;19927;-77
2023/03/03 10:45:45;;;;;;;2.30;2.10;;;;;;;;;;4875767;29;20517;-78
2023/03/03 10:48:21;;;;;;;3.17;2.42;;;;;;;;;;4877098;29;20064;-78
2023/03/03 10:50:50;;;;;;;1.77;1.60;;;;;;;;;;4880835;29;20033;-78
2023/03/03 10:53:36;;;;;;;2.33;1.70;;;;;;;;;;4882043;29;20072;-77
2023/03/03 10:56:17;;;;;;;1.80;1.70;;;;;;;;;;4875068;29;20061;-78
2023/03/03 10:59:03;;;;;;;3.35;1.50;;;;;;;;;;4871738;29;20025;-79
2023/03/03 11:02:07;;;;;;;4.90;1.90;;;;;;;;;;4872516;29;20034;-77
2023/03/03 11:04:43;;;;;;;1.80;1.70;;;;;;;;;;4800529;29;20043;-77
2023/03/03 11:07:21;;;;;;;2.30;1.80;;;;;;;;;;4817051;29;20059;-78
2023/03/03 11:09:47;;;;;;;1.92;1.80;;;;;;;;;;4853455;29;20266;-79
2023/03/03 11:12:32;;;;;;;3.13;2.40;;;;;;;;;;4858778;29;20404;-77
2023/03/03 11:15:17;;;;;;;4.03;2.10;;;;;;;;;;4877610;29;20033;-77
2023/03/03 11:18:02;;;;;;;2.05;1.90;;;;;;;;;;4878031;29;20029;-77
2023/03/03 11:20:28;;;;;;;1.92;1.70;;;;;;;;;;4879119;29;20021;-76
2023/03/03 11:23:15;;;;;;;1.85;1.70;;;;;;;;;;4882215;29;20033;-78
2023/03/03 11:25:47;;;;;;;2.05;1.75;;;;;;;;;;4847140;29;20048;-77
2023/03/03 11:28:16;;;;;;;4.28;2.03;;;;;;;;;;4874632;29;20028;-79
2023/03/03 11:30:54;;;;;;;2.00;1.80;;;;;;;;;;4878793;29;20088;-78
2023/03/03 11:33:20;;;;;;;2.47;1.83;;;;;;;;;;4882380;29;20358;-77
2023/03/03 11:35:59;;;;;;;1.98;1.50;;;;;;;;;;4877270;29;20025;-77
2023/03/03 11:38:57;;;;;;;2.28;1.88;;;;;;;;;;4867981;29;20033;-77
2023/03/03 11:41:39;;;;;;;3.30;1.90;;;;;;;;;;4856677;29;20620;-78
2023/03/03 11:44:10;;;;;;;2.88;2.13;;;;;;;;;;4879188;29;20025;-78
2023/03/03 11:46:36;;;;;;;6.80;1.98;;;;;;;;;;4880986;29;20131;-77
2023/03/03 11:49:04;;;;;;;5.47;1.90;;;;;;;;;;4873214;29;20178;-77
2023/03/03 11:51:53;;;;;;;2.90;2.13;;;;;;;;;;4883311;29;20040;-79
2023/03/03 11:54:19;;;;;;;2.20;1.98;;;;;;;;;;4900304;29;20047;-76
2023/03/03 11:56:46;;;;;;;2.53;2.30;;;;;;;;;;4894692;29;20104;-77
2023/03/03 11:59:18;;;;;;;2.92;2.28;;;;;;;;;;4898918;29;20048;-78
2023/03/03 12:01:52;;;;;;;3.05;1.70;;;;;;;;;;4895890;29;20020;-77
2023/03/03 12:04:20;;;;;;;2.20;1.90;;;;;;;;;;4897149;29;20036;-79
2023/03/03 12:07:01;;;;;;;3.95;2.58;;;;;;;;;;4895393;29;20084;-78
2023/03/03 12:09:37;;;;;;;4.93;3.25;;;;;;;;;;4895326;29;20035;-77
2023/03/03 12:12:07;;;;;;;4.13;3.15;;;;;;;;;;4898259;29;20092;-78
2023/03/03 12:14:59;;;;;;;3.67;1.80;;;;;;;;;;4894446;29;20057;-79
2023/03/03 12:17:25;;;;;;;2.83;1.85;;;;;;;;;;4884368;29;20044;-78
2023/03/03 12:19:51;;;;;;;2.10;1.90;;;;;;;;;;4889801;29;20048;-77
2023/03/03 12:22:18;;;;;;;3.47;2.00;;;;;;;;;;4875873;29;20420;-80
2023/03/03 12:25:08;;;;;;;2.35;2.15;;;;;;;;;;4880124;29;20036;-77
2023/03/03 12:27:49;;;;;;;3.85;2.60;;;;;;;;;;4890767;29;20040;-78
2023/03/03 12:30:31;;;;;;;4.10;2.78;;;;;;;;;;4873729;29;20116;-77
2023/03/03 12:33:06;;;;;;;2.50;1.92;;;;;;;;;;4888410;29;20028;-78
2023/03/03 12:35:33;;;;;;;;;;;;;;;;;;4877869;29;20051;-78
2023/03/03 12:37:59;;;;;;;3.92;2.30;;;;;;;;;;4887005;29;19986;-78
2023/03/03 12:40:29;;;;;;;2.38;1.98;;;;;;;;;;4891777;29;20060;-78
2023/03/03 12:42:57;;;;;;;3.50;2.65;;;;;;;;;;4892322;29;20024;-77
2023/03/03 12:45:23;;;;;;;2.72;2.22;;;;;;;;;;4884927;29;20036;-78
2023/03/03 12:48:00;;;;;;;2.55;2.20;;;;;;;;;;4895024;29;20492;-78
2023/03/03 12:50:32;;;;;;;3.20;2.03;;;;;;;;;;4875133;29;20032;-77
2023/03/03 12:52:58;;;;;;;7.03;2.35;;;;;;;;;;4892622;29;20056;-77
2023/03/03 12:55:34;;;;;;;2.55;2.15;;;;;;;;;;4894072;29;20522;-78
2023/03/03 12:58:00;;;;;;;;;;;;;;;;;;4895927;29;20039;-77
2023/03/03 13:00:26;;;;;;;3.03;1.85;;;;;;;;;;4877114;29;19912;-78
2023/03/03 13:03:01;;;;;;;2.75;1.77;;;;;;;;;;4896653;29;20028;-78
2023/03/03 13:05:27;;;;;;;;;;;;;;;;;;4876490;29;20457;-79
2023/03/03 13:07:53;;;;;;;;;;;;;;;;;;4896717;29;19919;-78
2023/03/03 13:10:38;;;;;;;2.22;2.03;;;;;;;;;;4884258;29;19915;-79
2023/03/03 13:13:11;;;;;;;4.27;3.17;;;;;;;;;;4897005;29;20079;-78
2023/03/03 13:15:52;;;;;;;3.92;2.30;;;;;;;;;;4880638;29;20047;-77
2023/03/03 13:18:25;;;;;;;1.90;1.80;;;;;;;;;;4875873;29;20067;-79
2023/03/03 13:20:51;;;;;;;1.55;1.45;;;;;;;;;;4896034;29;20032;-78
2023/03/03 13:23:28;;;;;;;1.85;1.45;;;;;;;;;;4885334;29;20460;-78
2023/03/03 13:25:57;;;;;;;2.13;1.60;;;;;;;;;;4895013;29;20085;-78
2023/03/03 13:28:26;;;;;;;1.55;1.45;;;;;;;;;;4893242;29;20278;-77
2023/03/03 13:30:55;;;;;;;3.80;1.67;;;;;;;;;;4880512;29;20029;-78
2023/03/03 13:33:21;;;;;;;3.33;1.80;;;;;;;;;;4895004;29;20108;-79
2023/03/03 13:35:56;;;;;;;2.42;1.70;;;;;;;;;;4903606;29;20048;-78
2023/03/03 13:38:38;;;;;;;1.85;1.70;;;;;;;;;;4908457;29;20053;-77
2023/03/03 13:41:21;;;;;;;2.35;1.95;;;;;;;;;;4898229;29;20028;-76
2023/03/03 13:43:50;;;;;;;2.58;2.15;;;;;;;;;;4910601;29;20024;-76
2023/03/03 13:46:16;;;;;;;2.38;1.90;;;;;;;;;;4898948;29;20068;-78
2023/03/03 13:48:45;;;;;;;3.95;2.25;;;;;;;;;;4903687;29;20057;-78
2023/03/03 13:51:23;;;;;;;3.47;3.17;;;;;;;;;;4916166;29;20056;-77
2023/03/03 13:53:49;;;;;;;4.57;3.65;;;;;;;;;;4918908;29;20092;-80
2023/03/03 13:56:21;;;;;;;6.05;3.83;;;;;;;;;;4920404;29;20089;-77
2023/03/03 13:59:12;;;;;;;5.57;3.90;;;;;;;;;;4913742;29;20507;-77
2023/03/03 14:01:38;;;;;;;6.13;3.42;;;;;;;;;;4911153;29;20075;-78
2023/03/03 14:04:22;;;;;;;5.57;4.00;;;;;;;;;;4909114;29;20548;-77
2023/03/03 14:06:52;;;;;;;4.72;4.20;;;;;;;;;;4913442;29;20057;-80
2023/03/03 14:09:51;;;;;;;7.07;4.43;;;;;;;;;;4910934;29;20044;-77
2023/03/03 14:12:34;;;;;;;5.78;3.90;;;;;;;;;;4884281;29;20095;-77
2023/03/03 14:15:22;;;;;;;7.72;4.75;;;;;;;;;;4919733;29;20396;-76
2023/03/03 14:17:52;;;;;;;9.85;5.20;;;;;;;;;;4904950;29;20024;-76
2023/03/03 14:20:18;;;;;;;8.88;5.82;;;;;;;;;;4896322;29;20060;-77
2023/03/03 14:22:44;;;;;;;10.35;5.72;;;;;;;;;;4912231;29;20029;-77
2023/03/03 14:25:14;;;;;;;7.85;6.18;;;;;;;;;;4917887;29;20056;-76
2023/03/03 14:27:46;;;;;;;12.45;7.72;;;;;;;;;;4908371;29;20440;-76
2023/03/03 14:30:21;;;;;;;11.40;7.72;;;;;;;;;;4916529;29;20039;-77
2023/03/03 14:33:14;;;;;;;8.73;6.93;;;;;;;;;;4910161;29;20032;-76
2023/03/03 14:35:41;;;;;;;9.05;5.88;;;;;;;;;;4912545;29;20031;-77
2023/03/03 14:38:07;;;;;;;7.88;5.65;;;;;;;;;;4914811;29;20143;-76
2023/03/03 14:40:36;;;;;;;10.15;6.43;;;;;;;;;;4903401;29;20021;-77
2023/03/03 14:43:06;;;;;;;11.88;6.65;;;;;;;;;;4908625;29;20028;-76
2023/03/03 14:45:32;;;;;;;9.40;6.35;;;;;;;;;;4893875;29;20033;-76
2023/03/03 14:48:00;;;;;;;9.75;7.47;;;;;;;;;;4893029;29;20035;-76
2023/03/03 14:50:35;;;;;;;10.43;6.45;;;;;;;;;;4910502;29;20032;-76
2023/03/03 14:53:25;;;;;;;10.18;6.30;;;;;;;;;;4897608;29;20051;-77
2023/03/03 14:55:52;;;;;;;5.75;3.00;;;;;;;;;;4899936;29;20048;-77
2023/03/03 14:58:30;;;;;;;2.03;1.83;;;;;;;;;;4888935;29;20068;-78
2023/03/03 15:01:20;;;;;;;1.85;1.75;;;;;;;;;;4904821;29;20025;-78
2023/03/03 15:03:51;;;;;;;2.60;2.00;;;;;;;;;;4896673;29;20052;-78